Ana Sayfa
METAR-TAF:

METAR-TAF

Havaalanları :

Curaçao, Hollanda Antilleri

Enlem: 12-12N, Boylam: 068-58W, yükseklik: 9 m

Güncel hava durumu gözlemi

Rapor saat 04:00 UTC de 1 saat ve 0 dakika önce yapıldı.
Rüzgar doğu/güneydoğudan 11 kt
Sıcaklık 28°C
Nem 79%
Basınç 1013 hPa
Görüş mesafesi 10 km veya daha fazla
1700 ft yükseklikte parçalı bulutlu

METAR: TNCC 250400Z AUTO 11011KT 9999 SCT017 28/24 Q1013 NOSIG

Saat: 01:00 (05:00 UTC)

Tahmin

Rapor saat 22:00 UTC de 7 saat ve 0 dakika önce yapıldı.
Ayın 25'si saat 00 UTC'den ayın 25'si saat 24 UTC'ye kadar geçerli Tahmin
Rüzgar doğudan 14 kt
Görüş mesafesi 10 km veya daha fazla
1800 ft yükseklikte parçalı bulutlu
Olasılık 30% :
Geçici
ayın 25'si saat 06 UTC'den ayın 25'si saat 18 UTC'ye kadar
Görüş mesafesi: 7000 m
1500 ft yükseklikte parçalı çok bulutlu
sağanak yağmurlar

TAF: TNCC 242200Z 2500/2524 10014KT 9999 SCT018 PROB30 TEMPO 2506/2518 7000 SHRA BKN015

4.000'den fazla havaalanı için hava durumu gözlemleri ve tahminleri (METAR ve TAF raporları).

Kullanılabilir istasyonlar harita üzerinde sarı ve kırmızı noktalarla gösterilir.

İstasyonun adını görmek için fareyi noktanın üzerinde gezdirin.

Sonrasında hava gözlem ve tahminlerini görmek için tıklayın.

Haritayı değiştirmek için: yaklaştırmak için siyah artı işaretli yeşil düğmeye ve uzaklaştırmak için de eksi işaretli düğmeye hızla tıklayın; bitişik haritalar için yeşil okları kullanın.


METAR-TAF: